createdAt,value
2019-02-25T00:01:28.434Z,20.68
2019-02-25T00:03:55.764Z,20.35
2019-02-25T00:06:23.244Z,21.10
2019-02-25T00:08:50.378Z,21.00
2019-02-25T00:11:17.346Z,21.02
2019-02-25T00:13:44.412Z,21.75
2019-02-25T00:16:11.990Z,22.17
2019-02-25T00:18:39.054Z,20.80
2019-02-25T00:21:06.856Z,21.82
2019-02-25T00:23:33.899Z,22.25
2019-02-25T00:26:01.295Z,20.25
2019-02-25T00:28:28.296Z,21.95
2019-02-25T00:30:55.688Z,20.88
2019-02-25T00:33:22.724Z,21.40
2019-02-25T00:35:49.780Z,21.17
2019-02-25T00:38:16.838Z,20.57
2019-02-25T00:40:43.834Z,21.57
2019-02-25T00:43:10.829Z,21.50
2019-02-25T00:45:37.873Z,21.17
2019-02-25T00:48:04.959Z,21.90
2019-02-25T00:50:32.314Z,20.77
2019-02-25T00:52:59.735Z,22.02
2019-02-25T00:55:27.059Z,22.07
2019-02-25T00:57:54.054Z,21.42
2019-02-25T01:00:21.800Z,21.85
2019-02-25T01:02:49.310Z,21.12
2019-02-25T01:05:17.732Z,21.37
2019-02-25T01:07:44.952Z,20.17
2019-02-25T01:10:12.699Z,21.30
2019-02-25T01:12:41.630Z,20.88
2019-02-25T01:15:09.225Z,21.80
2019-02-25T01:17:36.682Z,21.25
2019-02-25T01:20:04.826Z,20.12
2019-02-25T01:22:32.999Z,20.27
2019-02-25T01:25:00.007Z,20.72
2019-02-25T01:27:27.428Z,20.30
2019-02-25T01:29:55.838Z,19.90
2019-02-25T01:32:23.286Z,20.02
2019-02-25T01:34:50.772Z,18.50
2019-02-25T01:37:17.880Z,20.45
2019-02-25T01:39:44.986Z,19.95
2019-02-25T01:42:14.452Z,19.23
2019-02-25T01:44:41.946Z,19.77
2019-02-25T01:47:09.242Z,19.75
2019-02-25T01:49:36.484Z,19.62
2019-02-25T01:52:03.951Z,19.35
2019-02-25T01:54:31.318Z,19.27
2019-02-25T01:56:58.427Z,19.12
2019-02-25T01:59:27.336Z,20.68
2019-02-25T02:01:54.611Z,19.42
2019-02-25T02:04:21.712Z,17.90
2019-02-25T02:06:48.965Z,16.93
2019-02-25T02:09:16.238Z,16.40
2019-02-25T02:11:43.268Z,18.95
2019-02-25T02:14:10.307Z,19.50
2019-02-25T02:16:37.422Z,17.77
2019-02-25T02:19:04.554Z,17.40
2019-02-25T02:21:31.560Z,17.17
2019-02-25T02:23:59.134Z,16.87
2019-02-25T02:26:26.206Z,16.87
2019-02-25T02:28:53.367Z,16.87
2019-02-25T02:31:20.361Z,17.37
2019-02-25T02:33:47.400Z,17.32
2019-02-25T02:36:14.568Z,17.80
2019-02-25T02:38:41.552Z,17.30
2019-02-25T02:41:08.858Z,17.55
2019-02-25T02:43:36.122Z,17.52
2019-02-25T02:46:10.991Z,17.35
2019-02-25T02:48:59.991Z,16.65
2019-02-25T02:51:27.096Z,17.27
2019-02-25T02:53:54.728Z,17.82
2019-02-25T02:56:21.798Z,18.10
2019-02-25T02:58:49.309Z,18.50
2019-02-25T03:01:16.666Z,18.12
2019-02-25T03:03:44.757Z,17.77
2019-02-25T03:06:12.048Z,17.50
2019-02-25T03:08:39.496Z,18.40
2019-02-25T03:11:07.319Z,18.12
2019-02-25T03:13:34.363Z,17.55
2019-02-25T03:16:01.603Z,18.60
2019-02-25T03:18:29.126Z,17.85
2019-02-25T03:20:57.357Z,17.32
2019-02-25T03:23:24.531Z,17.60
2019-02-25T03:25:51.623Z,17.57
2019-02-25T03:28:18.617Z,18.05
2019-02-25T03:30:46.311Z,18.15
2019-02-25T03:33:13.599Z,18.60
2019-02-25T03:35:41.008Z,17.80
2019-02-25T03:38:09.391Z,17.90
2019-02-25T03:40:36.504Z,18.57
2019-02-25T03:43:03.937Z,17.77
2019-02-25T03:45:30.968Z,18.25
2019-02-25T03:47:58.441Z,16.90
2019-02-25T03:50:25.600Z,17.73
2019-02-25T03:52:52.619Z,16.73
2019-02-25T03:55:20.013Z,17.37
2019-02-25T03:57:47.450Z,17.92
2019-02-25T04:00:17.190Z,18.52
2019-02-25T04:02:44.397Z,17.60
2019-02-25T04:05:12.683Z,18.92
2019-02-25T04:07:39.933Z,19.10
2019-02-25T04:10:08.293Z,17.67
2019-02-25T04:12:35.404Z,19.67
2019-02-25T04:15:03.294Z,18.62
2019-02-25T04:17:30.423Z,18.90
2019-02-25T04:19:57.528Z,17.23
2019-02-25T04:22:24.878Z,19.07
2019-02-25T04:24:52.219Z,16.37
2019-02-25T04:27:19.299Z,18.95
2019-02-25T04:29:46.335Z,17.50
2019-02-25T04:32:13.356Z,18.62
2019-02-25T04:34:40.403Z,18.95
2019-02-25T04:37:07.420Z,17.82
2019-02-25T04:39:34.407Z,16.97
2019-02-25T04:42:01.674Z,18.02
2019-02-25T04:44:28.732Z,17.65
2019-02-25T04:46:55.813Z,17.15
2019-02-25T04:49:24.339Z,17.62
2019-02-25T04:51:53.810Z,16.77
2019-02-25T04:54:21.667Z,17.20
2019-02-25T04:56:49.315Z,15.93
2019-02-25T04:59:16.686Z,16.48
2019-02-25T05:01:44.081Z,17.17
2019-02-25T05:04:11.160Z,17.82
2019-02-25T05:06:38.383Z,17.12
2019-02-25T05:09:05.582Z,15.68
2019-02-25T05:11:33.994Z,17.40
2019-02-25T05:14:01.260Z,16.95
2019-02-25T05:16:28.644Z,16.70
2019-02-25T05:18:55.646Z,16.17
2019-02-25T05:21:23.283Z,17.37
2019-02-25T05:23:50.810Z,17.05
2019-02-25T05:26:17.850Z,16.12
2019-02-25T05:28:45.015Z,15.25
2019-02-25T05:31:12.929Z,17.10
2019-02-25T05:33:40.091Z,16.50
2019-02-25T05:36:07.214Z,15.40
2019-02-25T05:38:34.311Z,15.70
2019-02-25T05:41:01.352Z,16.15
2019-02-25T05:43:28.727Z,16.40
2019-02-25T05:45:56.119Z,17.32
2019-02-25T05:48:23.406Z,17.32
2019-02-25T05:50:50.683Z,15.95
2019-02-25T05:53:17.706Z,17.32
2019-02-25T05:55:44.684Z,18.15
2019-02-25T05:58:11.850Z,17.60
2019-02-25T06:00:41.083Z,17.00
2019-02-25T06:03:08.070Z,17.20
2019-02-25T06:05:35.204Z,18.32
2019-02-25T06:08:02.486Z,18.05
2019-02-25T06:10:29.692Z,18.20
2019-02-25T06:12:57.182Z,18.55
2019-02-25T06:15:24.714Z,18.17
2019-02-25T06:17:52.102Z,18.42
2019-02-25T06:20:19.200Z,18.65
2019-02-25T06:22:46.264Z,18.73
2019-02-25T06:25:13.580Z,17.48
2019-02-25T06:27:40.707Z,18.77
2019-02-25T06:30:10.522Z,18.52
2019-02-25T06:32:38.131Z,18.48
2019-02-25T06:35:05.670Z,18.82
2019-02-25T06:37:33.796Z,17.92
2019-02-25T06:40:00.941Z,18.77
2019-02-25T06:42:28.368Z,17.55
2019-02-25T06:44:55.402Z,17.77
2019-02-25T06:47:25.414Z,19.10
2019-02-25T06:49:53.158Z,19.67
2019-02-25T06:52:20.325Z,20.82
2019-02-25T06:54:47.624Z,20.62
2019-02-25T06:57:14.964Z,18.40
2019-02-25T06:59:42.155Z,19.23
2019-02-25T07:02:09.169Z,21.95
2019-02-25T07:04:54.371Z,23.20
2019-02-25T07:07:39.982Z,19.25
2019-02-25T07:10:22.185Z,19.35
2019-02-25T07:12:59.275Z,17.65
2019-02-25T07:15:49.410Z,21.70
2019-02-25T07:18:25.791Z,18.75
2019-02-25T07:21:13.145Z,18.55
2019-02-25T07:23:52.035Z,18.90
2019-02-25T07:26:37.754Z,17.50
2019-02-25T07:29:11.703Z,17.30
2019-02-25T07:31:55.561Z,17.25
2019-02-25T07:34:35.374Z,18.05
2019-02-25T07:37:31.951Z,16.87
2019-02-25T07:40:17.186Z,17.92
2019-02-25T07:43:04.562Z,17.50
2019-02-25T07:45:54.403Z,18.35
2019-02-25T07:48:47.034Z,17.55
2019-02-25T07:51:21.412Z,18.57
2019-02-25T07:54:06.997Z,17.95
2019-02-25T07:56:57.062Z,17.27
2019-02-25T07:59:30.302Z,19.23
2019-02-25T08:02:13.028Z,18.07
2019-02-25T08:05:08.640Z,19.05
2019-02-25T08:08:00.966Z,20.05
2019-02-25T08:10:47.998Z,20.68
2019-02-25T08:13:37.716Z,18.92
2019-02-25T08:16:23.710Z,19.35
2019-02-25T08:19:09.536Z,20.32
2019-02-25T08:21:56.318Z,19.82
2019-02-25T08:24:47.528Z,20.88
2019-02-25T08:27:32.961Z,19.20
2019-02-25T08:30:18.039Z,19.15
2019-02-25T08:33:12.877Z,19.25
2019-02-25T08:36:40.846Z,19.23
2019-02-25T08:39:25.420Z,18.55
2019-02-25T08:42:02.103Z,19.85
2019-02-25T08:44:45.054Z,20.40
2019-02-25T08:47:28.338Z,19.95
2019-02-25T08:50:04.428Z,20.35
2019-02-25T08:52:32.069Z,19.05
2019-02-25T08:54:59.193Z,19.85
2019-02-25T08:57:26.641Z,22.05
2019-02-25T08:59:54.139Z,21.35
2019-02-25T09:02:21.241Z,20.37
2019-02-25T09:04:49.280Z,20.02
2019-02-25T09:07:16.836Z,19.62
2019-02-25T09:09:44.087Z,19.95
2019-02-25T09:12:12.234Z,19.85
2019-02-25T09:14:39.383Z,21.52
2019-02-25T09:17:06.713Z,23.60
2019-02-25T09:19:34.877Z,19.40
2019-02-25T09:22:02.446Z,20.92
2019-02-25T09:24:29.580Z,22.90
2019-02-25T09:26:57.059Z,20.35
2019-02-25T09:29:24.074Z,19.42
2019-02-25T09:31:51.053Z,20.92
2019-02-25T09:34:18.548Z,20.52
2019-02-25T09:36:46.397Z,19.73
2019-02-25T09:39:13.685Z,22.20
2019-02-25T09:41:40.995Z,20.20
2019-02-25T09:44:08.433Z,21.65
2019-02-25T09:46:35.935Z,19.57
2019-02-25T09:49:03.430Z,22.13
2019-02-25T09:51:30.479Z,19.70
2019-02-25T09:53:57.526Z,21.17
2019-02-25T09:56:24.974Z,21.23
2019-02-25T09:58:52.088Z,23.62
2019-02-25T10:01:19.152Z,20.52
2019-02-25T10:03:46.292Z,18.25
2019-02-25T10:06:13.896Z,20.00
2019-02-25T10:08:41.319Z,22.22
2019-02-25T10:11:08.410Z,19.07
2019-02-25T10:13:35.993Z,20.10
2019-02-25T10:16:03.575Z,22.85
2019-02-25T10:18:31.152Z,23.02
2019-02-25T10:20:58.366Z,21.48
2019-02-25T10:23:25.705Z,23.05
2019-02-25T10:25:52.845Z,23.15
2019-02-25T10:28:20.784Z,22.98
2019-02-25T10:30:52.792Z,20.43
2019-02-25T10:33:17.762Z,20.55
2019-02-25T10:35:45.057Z,20.57
2019-02-25T10:38:12.286Z,21.07
2019-02-25T10:40:39.443Z,18.82
2019-02-25T10:43:06.803Z,20.27
2019-02-25T10:45:35.233Z,21.07
2019-02-25T10:48:03.558Z,21.17
2019-02-25T10:50:33.375Z,20.02
2019-02-25T10:53:03.558Z,19.50
2019-02-25T10:55:32.743Z,20.90
2019-02-25T10:58:03.799Z,20.60
2019-02-25T11:00:31.113Z,20.40
2019-02-25T11:02:58.564Z,20.30
2019-02-25T11:05:27.858Z,21.17
2019-02-25T11:07:54.738Z,20.48
2019-02-25T11:10:34.295Z,17.82
2019-02-25T11:13:02.595Z,19.67
2019-02-25T11:15:32.418Z,17.00
2019-02-25T11:17:59.940Z,19.15
2019-02-25T11:20:27.689Z,19.10
2019-02-25T11:22:56.230Z,19.17
2019-02-25T11:25:24.133Z,17.42
2019-02-25T11:28:24.796Z,17.02
2019-02-25T11:30:47.567Z,16.12
2019-02-25T11:33:15.418Z,15.90
2019-02-25T11:35:43.432Z,15.78
2019-02-25T11:38:12.073Z,15.13
2019-02-25T11:40:40.219Z,13.20
2019-02-25T11:43:08.415Z,14.95
2019-02-25T11:45:36.596Z,14.63
2019-02-25T11:48:03.708Z,14.05
2019-02-25T11:50:30.855Z,13.85
2019-02-25T11:52:57.872Z,14.83
2019-02-25T11:55:25.331Z,13.08
2019-02-25T11:57:52.359Z,14.28
2019-02-25T12:00:20.109Z,14.28
2019-02-25T12:02:49.892Z,13.68
2019-02-25T12:05:17.339Z,13.32
2019-02-25T12:07:44.636Z,13.95
2019-02-25T12:10:12.188Z,14.80
2019-02-25T12:12:39.525Z,15.28
2019-02-25T12:15:07.918Z,15.03
2019-02-25T12:17:36.218Z,14.60
2019-02-25T12:20:04.060Z,15.28
2019-02-25T12:22:31.218Z,15.00
2019-02-25T12:24:58.237Z,16.93
2019-02-25T12:27:25.822Z,16.30
2019-02-25T12:29:53.231Z,16.90
2019-02-25T12:32:20.575Z,17.85
2019-02-25T12:34:47.564Z,16.97
2019-02-25T12:37:15.267Z,15.70
2019-02-25T12:39:42.445Z,16.00
2019-02-25T12:42:10.255Z,15.35
2019-02-25T12:44:37.771Z,15.80
2019-02-25T12:47:05.169Z,15.53
2019-02-25T12:49:32.575Z,15.28
2019-02-25T12:52:00.095Z,14.50
2019-02-25T12:54:27.217Z,14.40
2019-02-25T12:56:54.609Z,14.47
2019-02-25T12:59:22.048Z,15.43
2019-02-25T13:01:50.444Z,15.03
2019-02-25T13:04:18.175Z,16.00
2019-02-25T13:06:45.220Z,17.02
2019-02-25T13:09:13.609Z,14.95
2019-02-25T13:11:40.881Z,13.70
2019-02-25T13:14:08.102Z,14.68
2019-02-25T13:16:38.235Z,15.75
2019-02-25T13:19:05.370Z,15.60
2019-02-25T13:21:32.468Z,14.63
2019-02-25T13:24:01.900Z,13.15
2019-02-25T13:26:29.841Z,12.80
2019-02-25T13:28:58.219Z,12.73
2019-02-25T13:31:25.343Z,13.13
2019-02-25T13:33:52.523Z,12.82
2019-02-25T13:36:20.199Z,13.45
2019-02-25T13:38:48.163Z,13.72
2019-02-25T13:41:15.598Z,13.15
2019-02-25T13:43:42.695Z,13.53
2019-02-25T13:46:09.871Z,14.03
2019-02-25T13:48:37.298Z,12.85
2019-02-25T13:51:04.859Z,12.98
2019-02-25T13:53:31.975Z,13.38
2019-02-25T13:55:59.233Z,12.68
2019-02-25T13:58:26.396Z,13.60
2019-02-25T14:00:53.641Z,13.08
2019-02-25T14:03:20.890Z,14.03
2019-02-25T14:05:48.268Z,12.37
2019-02-25T14:08:16.720Z,14.03
2019-02-25T14:10:44.646Z,15.32
2019-02-25T14:13:11.941Z,12.68
2019-02-25T14:15:39.330Z,14.58
2019-02-25T14:18:06.815Z,14.18
2019-02-25T14:20:34.235Z,12.68
2019-02-25T14:23:01.659Z,12.53
2019-02-25T14:25:28.893Z,12.45
2019-02-25T14:27:56.705Z,12.93
2019-02-25T14:30:24.162Z,12.60
2019-02-25T14:32:54.118Z,12.88
2019-02-25T14:35:25.999Z,12.13
2019-02-25T14:37:53.055Z,12.95
2019-02-25T14:40:21.737Z,13.50
2019-02-25T14:42:51.996Z,12.80
2019-02-25T14:45:21.809Z,14.47
2019-02-25T14:47:55.399Z,14.03
2019-02-25T14:50:19.527Z,14.93
2019-02-25T14:52:48.287Z,14.95
2019-02-25T14:55:15.769Z,13.78
2019-02-25T14:57:44.355Z,14.53
2019-02-25T15:00:15.006Z,13.65
2019-02-25T15:02:45.497Z,13.43
2019-02-25T15:05:13.063Z,13.88
2019-02-25T15:07:42.884Z,13.90
2019-02-25T15:10:11.146Z,14.50
2019-02-25T15:12:39.559Z,15.58
2019-02-25T15:15:10.093Z,15.03
2019-02-25T15:17:37.317Z,12.75
2019-02-25T15:20:04.959Z,13.20
2019-02-25T15:22:33.963Z,13.95
2019-02-25T15:25:02.218Z,14.98
2019-02-25T15:27:30.606Z,13.98
2019-02-25T15:29:58.397Z,13.48
2019-02-25T15:32:26.057Z,14.07
2019-02-25T15:34:54.985Z,14.07
2019-02-25T15:37:23.641Z,13.28
2019-02-25T15:39:52.548Z,13.88
2019-02-25T15:42:19.853Z,13.95
2019-02-25T15:44:49.341Z,14.50
2019-02-25T15:47:16.711Z,13.72
2019-02-25T15:49:43.858Z,14.70
2019-02-25T15:52:14.657Z,14.53
2019-02-25T15:54:41.429Z,16.00
2019-02-25T15:57:10.124Z,15.40
2019-02-25T15:59:37.309Z,15.35
2019-02-25T16:02:05.604Z,16.40
2019-02-25T16:04:36.099Z,15.68
2019-02-25T16:07:07.833Z,16.90
2019-02-25T16:09:34.751Z,17.07
2019-02-25T16:12:03.282Z,17.40
2019-02-25T16:14:32.502Z,16.97
2019-02-25T16:16:59.958Z,17.60
2019-02-25T16:19:38.787Z,18.45
2019-02-25T16:21:56.788Z,18.57
2019-02-25T16:24:25.661Z,17.82
2019-02-25T16:26:56.070Z,19.77
2019-02-25T16:29:23.136Z,18.70
2019-02-25T16:31:51.562Z,18.17
2019-02-25T16:34:20.669Z,18.07
2019-02-25T16:36:51.493Z,18.35
2019-02-25T16:39:18.144Z,17.48
2019-02-25T16:41:45.745Z,17.75
2019-02-25T16:44:14.267Z,18.40
2019-02-25T16:46:43.578Z,18.95
2019-02-25T16:49:10.963Z,19.55
2019-02-25T16:51:38.126Z,19.85
2019-02-25T16:54:09.110Z,19.95
2019-02-25T16:56:34.659Z,18.87
2019-02-25T16:59:10.571Z,19.52
2019-02-25T17:01:32.191Z,20.00
2019-02-25T17:04:00.610Z,18.50
2019-02-25T17:06:28.113Z,19.30
2019-02-25T17:08:57.781Z,20.23
2019-02-25T17:11:25.742Z,19.52
2019-02-25T17:13:54.954Z,19.82
2019-02-25T17:16:24.123Z,20.32
2019-02-25T17:18:53.712Z,20.10
2019-02-25T17:21:21.232Z,18.32
2019-02-25T17:23:48.592Z,20.27
2019-02-25T17:26:17.542Z,20.45
2019-02-25T17:28:45.035Z,20.32
2019-02-25T17:31:14.352Z,20.60
2019-02-25T17:33:41.855Z,21.60
2019-02-25T17:36:10.695Z,21.05
2019-02-25T17:38:40.686Z,20.50
2019-02-25T17:41:10.685Z,19.27
2019-02-25T17:43:39.160Z,19.00
2019-02-25T17:46:09.257Z,21.60
2019-02-25T17:48:36.861Z,21.57
2019-02-25T17:51:04.727Z,20.50
2019-02-25T17:53:32.771Z,20.75
2019-02-25T17:56:00.206Z,19.48
2019-02-25T17:58:27.380Z,19.52
2019-02-25T18:00:56.602Z,20.23
2019-02-25T18:03:26.017Z,22.27
2019-02-25T18:05:53.741Z,21.25
2019-02-25T18:08:21.029Z,20.52
2019-02-25T18:10:50.068Z,20.92
2019-02-25T18:13:17.656Z,22.22
2019-02-25T18:15:47.033Z,21.73
2019-02-25T18:18:15.167Z,22.07
2019-02-25T18:20:43.294Z,21.00
2019-02-25T18:23:10.751Z,20.85
2019-02-25T18:25:39.744Z,21.87
2019-02-25T18:28:08.622Z,23.07
2019-02-25T18:30:36.832Z,23.60
2019-02-25T18:33:05.231Z,22.13
2019-02-25T18:35:35.765Z,21.75
2019-02-25T18:38:04.780Z,23.30
2019-02-25T18:40:33.554Z,20.90
2019-02-25T18:43:02.567Z,24.02
2019-02-25T18:45:30.747Z,22.55
2019-02-25T18:47:58.044Z,23.73
2019-02-25T18:50:26.870Z,22.67
2019-02-25T18:52:56.844Z,21.70
2019-02-25T18:55:24.920Z,23.45
2019-02-25T18:57:54.359Z,23.98
2019-02-25T19:00:31.037Z,23.30
2019-02-25T19:02:58.689Z,22.37
2019-02-25T19:05:29.312Z,21.65
2019-02-25T19:07:57.642Z,23.42
2019-02-25T19:10:26.827Z,21.82
2019-02-25T19:12:56.347Z,23.02
2019-02-25T19:15:24.810Z,22.90
2019-02-25T19:17:54.416Z,24.40
2019-02-25T19:20:21.787Z,22.32
2019-02-25T19:22:49.490Z,22.20
2019-02-25T19:25:18.164Z,22.73
2019-02-25T19:27:47.943Z,24.23
2019-02-25T19:30:19.504Z,24.25
2019-02-25T19:32:45.687Z,25.00
2019-02-25T19:35:13.421Z,24.77
2019-02-25T19:37:44.441Z,22.52
2019-02-25T19:40:19.605Z,24.52
2019-02-25T19:42:51.135Z,24.72
2019-02-25T19:45:16.725Z,23.92
2019-02-25T19:47:44.594Z,24.85
2019-02-25T19:50:12.210Z,24.52
2019-02-25T19:52:41.867Z,23.98
2019-02-25T19:55:10.541Z,24.05
2019-02-25T19:57:38.478Z,23.98
2019-02-25T20:00:09.407Z,25.15
2019-02-25T20:02:38.612Z,24.55
2019-02-25T20:05:09.587Z,26.48
2019-02-25T20:07:36.007Z,25.43
2019-02-25T20:10:05.170Z,27.25
2019-02-25T20:12:35.607Z,27.35
2019-02-25T20:15:07.130Z,26.77
2019-02-25T20:17:33.646Z,25.65
2019-02-25T20:20:02.982Z,27.27
2019-02-25T20:22:32.753Z,25.05
2019-02-25T20:25:00.422Z,26.10
2019-02-25T20:27:27.670Z,24.63
2019-02-25T20:29:55.873Z,25.68
2019-02-25T20:32:24.736Z,25.68
2019-02-25T20:34:54.455Z,26.27
2019-02-25T20:37:22.909Z,23.65
2019-02-25T20:39:50.676Z,26.42
2019-02-25T20:42:21.696Z,26.70
2019-02-25T20:44:49.264Z,27.50
2019-02-25T20:47:18.066Z,25.97
2019-02-25T20:49:47.399Z,24.98
2019-02-25T20:52:16.027Z,26.52
2019-02-25T20:54:45.342Z,27.50
2019-02-25T20:57:13.871Z,26.68
2019-02-25T20:59:41.254Z,25.68
2019-02-25T21:02:13.769Z,26.70
2019-02-25T21:04:38.741Z,27.65
2019-02-25T21:07:10.856Z,26.45
2019-02-25T21:09:37.739Z,29.10
2019-02-25T21:12:10.309Z,28.98
2019-02-25T21:14:37.990Z,28.73
2019-02-25T21:17:06.957Z,29.42
2019-02-25T21:19:36.149Z,27.82
2019-02-25T21:22:04.502Z,29.12
2019-02-25T21:24:33.731Z,28.30
2019-02-25T21:27:03.682Z,30.30
2019-02-25T21:29:31.850Z,32.13
2019-02-25T21:32:00.265Z,27.77
2019-02-25T21:34:29.146Z,28.85
2019-02-25T21:36:58.329Z,31.40
2019-02-25T21:39:26.107Z,28.70
2019-02-25T21:41:53.450Z,28.60
2019-02-25T21:44:21.437Z,29.15
2019-02-25T21:46:51.955Z,29.18
2019-02-25T21:49:20.265Z,29.42
2019-02-25T21:51:48.133Z,28.57
2019-02-25T21:54:15.519Z,28.27
2019-02-25T21:56:42.643Z,31.93
2019-02-25T21:59:10.510Z,29.75
2019-02-25T22:01:39.473Z,31.00
2019-02-25T22:04:09.261Z,30.95
2019-02-25T22:06:36.772Z,29.20
2019-02-25T22:09:05.766Z,28.55
2019-02-25T22:11:34.752Z,31.15
2019-02-25T22:14:01.937Z,29.42
2019-02-25T22:16:30.040Z,29.82
2019-02-25T22:18:58.844Z,31.27
2019-02-25T22:21:26.070Z,30.57
2019-02-25T22:23:55.962Z,30.65
2019-02-25T22:26:25.249Z,29.50
2019-02-25T22:28:53.227Z,31.25
2019-02-25T22:31:21.048Z,32.93
2019-02-25T22:33:48.179Z,30.62
2019-02-25T22:36:15.798Z,32.45
2019-02-25T22:38:43.242Z,31.30
2019-02-25T22:41:11.660Z,30.10
2019-02-25T22:43:41.297Z,31.45
2019-02-25T22:46:11.131Z,31.15
2019-02-25T22:48:37.665Z,30.48
2019-02-25T22:51:06.986Z,30.48
2019-02-25T22:53:34.477Z,31.12
2019-02-25T22:56:01.880Z,31.33
2019-02-25T22:58:29.098Z,31.33
2019-02-25T23:01:06.646Z,30.43
2019-02-25T23:03:35.764Z,31.95
2019-02-25T23:06:03.492Z,33.63
2019-02-25T23:08:30.641Z,30.48
2019-02-25T23:10:57.885Z,30.52
2019-02-25T23:13:27.489Z,32.15
2019-02-25T23:15:54.437Z,33.20
2019-02-25T23:18:22.949Z,32.53
2019-02-25T23:20:52.526Z,33.73
2019-02-25T23:23:21.294Z,32.70
2019-02-25T23:25:51.284Z,32.50
2019-02-25T23:28:20.547Z,32.93
2019-02-25T23:30:47.679Z,33.50
2019-02-25T23:33:16.761Z,32.67
2019-02-25T23:35:46.607Z,33.60
2019-02-25T23:38:12.831Z,34.40
2019-02-25T23:40:42.765Z,33.65
2019-02-25T23:43:10.132Z,34.67
2019-02-25T23:45:39.969Z,33.65
2019-02-25T23:48:08.959Z,34.23
2019-02-25T23:50:36.339Z,33.20
2019-02-25T23:53:03.442Z,31.42
2019-02-25T23:55:30.761Z,33.40
2019-02-25T23:57:57.953Z,29.92
